sensor_id;sensor_type;location;lat;lon;timestamp;temperature;humidity
76120;DHT22;64852;48.092;-1.640;2024-01-11T00:00:29;1.90;99.90
76120;DHT22;64852;48.092;-1.640;2024-01-11T00:02:54;1.90;99.90
76120;DHT22;64852;48.092;-1.640;2024-01-11T00:05:20;2.00;99.90
76120;DHT22;64852;48.092;-1.640;2024-01-11T00:07:47;2.90;99.90
76120;DHT22;64852;48.092;-1.640;2024-01-11T00:10:13;2.70;99.90
76120;DHT22;64852;48.092;-1.640;2024-01-11T00:12:39;1.90;99.90
76120;DHT22;64852;48.092;-1.640;2024-01-11T00:15:05;1.70;99.90
76120;DHT22;64852;48.092;-1.640;2024-01-11T00:17:30;1.80;99.90
76120;DHT22;64852;48.092;-1.640;2024-01-11T00:19:56;3.00;99.90
76120;DHT22;64852;48.092;-1.640;2024-01-11T00:22:21;1.70;99.90
76120;DHT22;64852;48.092;-1.640;2024-01-11T00:24:47;1.80;99.90
76120;DHT22;64852;48.092;-1.640;2024-01-11T00:27:12;1.70;99.90
76120;DHT22;64852;48.092;-1.640;2024-01-11T00:29:38;1.90;99.90
76120;DHT22;64852;48.092;-1.640;2024-01-11T00:32:03;2.70;99.90
76120;DHT22;64852;48.092;-1.640;2024-01-11T00:34:29;1.90;99.90
76120;DHT22;64852;48.092;-1.640;2024-01-11T00:36:54;2.60;99.90
76120;DHT22;64852;48.092;-1.640;2024-01-11T00:39:20;1.70;99.90
76120;DHT22;64852;48.092;-1.640;2024-01-11T00:41:45;2.70;99.90
76120;DHT22;64852;48.092;-1.640;2024-01-11T00:44:11;1.70;99.90
76120;DHT22;64852;48.092;-1.640;2024-01-11T00:46:36;1.70;99.90
76120;DHT22;64852;48.092;-1.640;2024-01-11T00:49:03;1.60;99.90
76120;DHT22;64852;48.092;-1.640;2024-01-11T00:51:29;0.10;99.90
76120;DHT22;64852;48.092;-1.640;2024-01-11T00:53:54;1.60;99.90
76120;DHT22;64852;48.092;-1.640;2024-01-11T00:56:20;1.50;99.90
76120;DHT22;64852;48.092;-1.640;2024-01-11T00:58:45;1.40;99.90
76120;DHT22;64852;48.092;-1.640;2024-01-11T01:01:11;1.30;99.90
76120;DHT22;64852;48.092;-1.640;2024-01-11T01:03:37;3.10;99.90
76120;DHT22;64852;48.092;-1.640;2024-01-11T01:06:03;1.40;99.90
76120;DHT22;64852;48.092;-1.640;2024-01-11T01:08:28;1.30;99.90
76120;DHT22;64852;48.092;-1.640;2024-01-11T01:10:54;2.40;99.90
76120;DHT22;64852;48.092;-1.640;2024-01-11T01:13:20;1.20;99.90
76120;DHT22;64852;48.092;-1.640;2024-01-11T01:15:45;1.10;99.90
76120;DHT22;64852;48.092;-1.640;2024-01-11T01:18:11;1.10;99.90
76120;DHT22;64852;48.092;-1.640;2024-01-11T01:20:36;1.00;99.90
76120;DHT22;64852;48.092;-1.640;2024-01-11T01:23:02;1.10;99.90
76120;DHT22;64852;48.092;-1.640;2024-01-11T01:25:28;1.00;99.90
76120;DHT22;64852;48.092;-1.640;2024-01-11T01:27:53;0.90;99.90
76120;DHT22;64852;48.092;-1.640;2024-01-11T01:30:19;0.90;99.90
76120;DHT22;64852;48.092;-1.640;2024-01-11T01:32:45;0.80;99.90
76120;DHT22;64852;48.092;-1.640;2024-01-11T01:35:10;0.90;99.90
76120;DHT22;64852;48.092;-1.640;2024-01-11T01:37:36;0.90;99.90
76120;DHT22;64852;48.092;-1.640;2024-01-11T01:40:01;0.90;99.90
76120;DHT22;64852;48.092;-1.640;2024-01-11T01:42:27;0.90;99.90
76120;DHT22;64852;48.092;-1.640;2024-01-11T01:44:53;0.90;99.90
76120;DHT22;64852;48.092;-1.640;2024-01-11T01:47:18;0.90;99.90
76120;DHT22;64852;48.092;-1.640;2024-01-11T01:49:44;2.20;99.90
76120;DHT22;64852;48.092;-1.640;2024-01-11T01:52:10;1.50;99.90
76120;DHT22;64852;48.092;-1.640;2024-01-11T01:54:36;2.90;99.90
76120;DHT22;64852;48.092;-1.640;2024-01-11T01:57:02;0.60;99.90
76120;DHT22;64852;48.092;-1.640;2024-01-11T01:59:28;0.60;99.90
76120;DHT22;64852;48.092;-1.640;2024-01-11T02:01:54;0.50;99.90
76120;DHT22;64852;48.092;-1.640;2024-01-11T02:04:20;0.60;99.90
76120;DHT22;64852;48.092;-1.640;2024-01-11T02:06:46;0.40;99.90
76120;DHT22;64852;48.092;-1.640;2024-01-11T02:09:12;0.50;99.90
76120;DHT22;64852;48.092;-1.640;2024-01-11T02:11:38;0.50;99.90
76120;DHT22;64852;48.092;-1.640;2024-01-11T02:14:04;0.40;99.90
76120;DHT22;64852;48.092;-1.640;2024-01-11T02:16:30;0.40;99.90
76120;DHT22;64852;48.092;-1.640;2024-01-11T02:18:55;0.50;99.90
76120;DHT22;64852;48.092;-1.640;2024-01-11T02:21:21;0.40;99.90
76120;DHT22;64852;48.092;-1.640;2024-01-11T02:24:03;0.30;99.90
76120;DHT22;64852;48.092;-1.640;2024-01-11T02:26:29;0.30;99.90
76120;DHT22;64852;48.092;-1.640;2024-01-11T02:28:55;0.30;99.90
76120;DHT22;64852;48.092;-1.640;2024-01-11T02:31:20;0.40;99.90
76120;DHT22;64852;48.092;-1.640;2024-01-11T02:33:46;0.30;99.90
76120;DHT22;64852;48.092;-1.640;2024-01-11T02:36:12;0.30;99.90
76120;DHT22;64852;48.092;-1.640;2024-01-11T02:38:38;0.20;99.90
76120;DHT22;64852;48.092;-1.640;2024-01-11T02:41:04;1.60;99.90
76120;DHT22;64852;48.092;-1.640;2024-01-11T02:43:30;0.20;99.90
76120;DHT22;64852;48.092;-1.640;2024-01-11T02:45:56;0.10;99.90
76120;DHT22;64852;48.092;-1.640;2024-01-11T02:48:27;0.10;99.90
76120;DHT22;64852;48.092;-1.640;2024-01-11T02:50:52;0.20;99.90
76120;DHT22;64852;48.092;-1.640;2024-01-11T02:53:18;0.10;99.90
76120;DHT22;64852;48.092;-1.640;2024-01-11T02:55:43;0.00;99.90
76120;DHT22;64852;48.092;-1.640;2024-01-11T02:58:08;0.00;99.90
76120;DHT22;64852;48.092;-1.640;2024-01-11T03:00:34;-0.20;99.90
76120;DHT22;64852;48.092;-1.640;2024-01-11T03:02:59;0.00;99.90
76120;DHT22;64852;48.092;-1.640;2024-01-11T03:05:25;0.00;99.90
76120;DHT22;64852;48.092;-1.640;2024-01-11T03:07:50;0.00;99.90
76120;DHT22;64852;48.092;-1.640;2024-01-11T03:10:16;0.10;99.90
76120;DHT22;64852;48.092;-1.640;2024-01-11T03:12:41;0.00;99.90
76120;DHT22;64852;48.092;-1.640;2024-01-11T03:15:07;0.00;99.90
76120;DHT22;64852;48.092;-1.640;2024-01-11T03:17:33;0.00;99.90
76120;DHT22;64852;48.092;-1.640;2024-01-11T03:19:59;0.00;99.90
76120;DHT22;64852;48.092;-1.640;2024-01-11T03:22:25;0.10;99.90
76120;DHT22;64852;48.092;-1.640;2024-01-11T03:24:50;0.10;99.90
76120;DHT22;64852;48.092;-1.640;2024-01-11T03:27:16;0.10;99.90
76120;DHT22;64852;48.092;-1.640;2024-01-11T03:29:41;1.40;99.90
76120;DHT22;64852;48.092;-1.640;2024-01-11T03:32:07;0.20;99.90
76120;DHT22;64852;48.092;-1.640;2024-01-11T03:34:32;1.50;99.90
76120;DHT22;64852;48.092;-1.640;2024-01-11T03:36:58;1.80;99.90
76120;DHT22;64852;48.092;-1.640;2024-01-11T03:39:24;0.00;99.90
76120;DHT22;64852;48.092;-1.640;2024-01-11T03:41:50;0.10;99.90
76120;DHT22;64852;48.092;-1.640;2024-01-11T03:44:15;1.40;99.90
76120;DHT22;64852;48.092;-1.640;2024-01-11T03:46:41;0.20;99.90
76120;DHT22;64852;48.092;-1.640;2024-01-11T03:49:06;0.10;99.90
76120;DHT22;64852;48.092;-1.640;2024-01-11T03:51:33;0.20;99.90
76120;DHT22;64852;48.092;-1.640;2024-01-11T03:53:58;0.30;99.90
76120;DHT22;64852;48.092;-1.640;2024-01-11T03:56:24;0.30;99.90
76120;DHT22;64852;48.092;-1.640;2024-01-11T03:58:49;1.50;99.90
76120;DHT22;64852;48.092;-1.640;2024-01-11T04:01:15;1.00;99.90
76120;DHT22;64852;48.092;-1.640;2024-01-11T04:03:41;0.30;99.90
76120;DHT22;64852;48.092;-1.640;2024-01-11T04:06:07;0.30;99.90
76120;DHT22;64852;48.092;-1.640;2024-01-11T04:08:32;0.10;99.90
76120;DHT22;64852;48.092;-1.640;2024-01-11T04:10:58;0.30;99.90
76120;DHT22;64852;48.092;-1.640;2024-01-11T04:13:26;1.20;99.90
76120;DHT22;64852;48.092;-1.640;2024-01-11T04:15:52;0.10;99.90
76120;DHT22;64852;48.092;-1.640;2024-01-11T04:18:17;0.20;99.90
76120;DHT22;64852;48.092;-1.640;2024-01-11T04:20:43;1.20;99.90
76120;DHT22;64852;48.092;-1.640;2024-01-11T04:23:08;0.20;99.90
76120;DHT22;64852;48.092;-1.640;2024-01-11T04:25:33;1.60;99.90
76120;DHT22;64852;48.092;-1.640;2024-01-11T04:28:00;0.00;99.90
76120;DHT22;64852;48.092;-1.640;2024-01-11T04:30:25;0.20;99.90
76120;DHT22;64852;48.092;-1.640;2024-01-11T04:32:52;0.30;99.90
76120;DHT22;64852;48.092;-1.640;2024-01-11T04:35:18;0.20;99.90
76120;DHT22;64852;48.092;-1.640;2024-01-11T04:37:43;0.20;99.90
76120;DHT22;64852;48.092;-1.640;2024-01-11T04:40:09;0.30;99.90
76120;DHT22;64852;48.092;-1.640;2024-01-11T04:42:34;0.40;99.90
76120;DHT22;64852;48.092;-1.640;2024-01-11T04:45:00;0.40;99.90
76120;DHT22;64852;48.092;-1.640;2024-01-11T04:47:25;0.30;99.90
76120;DHT22;64852;48.092;-1.640;2024-01-11T04:49:51;0.30;99.90
76120;DHT22;64852;48.092;-1.640;2024-01-11T04:52:16;0.30;99.90
76120;DHT22;64852;48.092;-1.640;2024-01-11T04:54:42;0.40;99.90
76120;DHT22;64852;48.092;-1.640;2024-01-11T04:57:07;0.30;99.90
76120;DHT22;64852;48.092;-1.640;2024-01-11T04:59:33;0.40;99.90
76120;DHT22;64852;48.092;-1.640;2024-01-11T05:01:58;0.40;99.90
76120;DHT22;64852;48.092;-1.640;2024-01-11T05:04:24;0.40;99.90
76120;DHT22;64852;48.092;-1.640;2024-01-11T05:06:50;0.40;99.90
76120;DHT22;64852;48.092;-1.640;2024-01-11T05:09:16;0.60;99.90
76120;DHT22;64852;48.092;-1.640;2024-01-11T05:11:41;0.60;99.90
76120;DHT22;64852;48.092;-1.640;2024-01-11T05:14:07;0.50;99.90
76120;DHT22;64852;48.092;-1.640;2024-01-11T05:16:32;0.60;99.90
76120;DHT22;64852;48.092;-1.640;2024-01-11T05:18:58;0.60;99.90
76120;DHT22;64852;48.092;-1.640;2024-01-11T05:21:23;0.50;99.90
76120;DHT22;64852;48.092;-1.640;2024-01-11T05:23:49;0.60;99.90
76120;DHT22;64852;48.092;-1.640;2024-01-11T05:26:16;1.50;99.90
76120;DHT22;64852;48.092;-1.640;2024-01-11T05:28:42;0.60;99.90
76120;DHT22;64852;48.092;-1.640;2024-01-11T05:31:11;0.60;99.90
76120;DHT22;64852;48.092;-1.640;2024-01-11T05:33:37;2.40;99.90
76120;DHT22;64852;48.092;-1.640;2024-01-11T05:36:03;1.00;99.90
76120;DHT22;64852;48.092;-1.640;2024-01-11T05:38:28;0.60;99.90
76120;DHT22;64852;48.092;-1.640;2024-01-11T05:40:54;0.60;99.90
76120;DHT22;64852;48.092;-1.640;2024-01-11T05:43:20;0.60;99.90
76120;DHT22;64852;48.092;-1.640;2024-01-11T05:45:45;0.60;99.90
76120;DHT22;64852;48.092;-1.640;2024-01-11T05:48:11;0.60;99.90
76120;DHT22;64852;48.092;-1.640;2024-01-11T05:50:36;0.70;99.90
76120;DHT22;64852;48.092;-1.640;2024-01-11T05:53:02;1.20;99.90
76120;DHT22;64852;48.092;-1.640;2024-01-11T05:55:28;0.70;99.90
76120;DHT22;64852;48.092;-1.640;2024-01-11T05:57:53;0.70;99.90
76120;DHT22;64852;48.092;-1.640;2024-01-11T06:00:19;0.70;99.90
76120;DHT22;64852;48.092;-1.640;2024-01-11T06:02:45;0.80;99.90
76120;DHT22;64852;48.092;-1.640;2024-01-11T06:05:10;0.70;99.90
76120;DHT22;64852;48.092;-1.640;2024-01-11T06:07:37;0.70;99.90
76120;DHT22;64852;48.092;-1.640;2024-01-11T06:10:04;0.80;99.90
76120;DHT22;64852;48.092;-1.640;2024-01-11T06:12:31;0.80;99.90
76120;DHT22;64852;48.092;-1.640;2024-01-11T06:14:56;0.80;99.90
76120;DHT22;64852;48.092;-1.640;2024-01-11T06:17:23;0.80;99.90
76120;DHT22;64852;48.092;-1.640;2024-01-11T06:19:49;0.80;99.90
76120;DHT22;64852;48.092;-1.640;2024-01-11T06:22:14;2.70;99.90
76120;DHT22;64852;48.092;-1.640;2024-01-11T06:24:40;2.20;99.90
76120;DHT22;64852;48.092;-1.640;2024-01-11T06:27:05;0.80;99.90
76120;DHT22;64852;48.092;-1.640;2024-01-11T06:29:31;1.30;99.90
76120;DHT22;64852;48.092;-1.640;2024-01-11T06:31:56;0.70;99.90
76120;DHT22;64852;48.092;-1.640;2024-01-11T06:34:22;0.80;99.90
76120;DHT22;64852;48.092;-1.640;2024-01-11T06:36:47;0.70;99.90
76120;DHT22;64852;48.092;-1.640;2024-01-11T06:39:13;1.70;99.90
76120;DHT22;64852;48.092;-1.640;2024-01-11T06:41:38;0.90;99.90
76120;DHT22;64852;48.092;-1.640;2024-01-11T06:44:04;0.90;99.90
76120;DHT22;64852;48.092;-1.640;2024-01-11T06:46:29;0.90;99.90
76120;DHT22;64852;48.092;-1.640;2024-01-11T06:48:55;1.00;99.90
76120;DHT22;64852;48.092;-1.640;2024-01-11T06:51:21;1.00;99.90
76120;DHT22;64852;48.092;-1.640;2024-01-11T06:53:47;2.20;99.90
76120;DHT22;64852;48.092;-1.640;2024-01-11T06:56:16;2.20;99.90
76120;DHT22;64852;48.092;-1.640;2024-01-11T06:58:42;1.10;99.90
76120;DHT22;64852;48.092;-1.640;2024-01-11T07:01:08;1.00;99.90
76120;DHT22;64852;48.092;-1.640;2024-01-11T07:03:33;1.90;99.90
76120;DHT22;64852;48.092;-1.640;2024-01-11T07:05:59;1.10;99.90
76120;DHT22;64852;48.092;-1.640;2024-01-11T07:08:24;1.10;99.90
76120;DHT22;64852;48.092;-1.640;2024-01-11T07:10:50;1.10;99.90
76120;DHT22;64852;48.092;-1.640;2024-01-11T07:13:15;2.20;99.90
76120;DHT22;64852;48.092;-1.640;2024-01-11T07:15:45;1.00;99.90
76120;DHT22;64852;48.092;-1.640;2024-01-11T07:18:10;0.90;99.90
76120;DHT22;64852;48.092;-1.640;2024-01-11T07:20:36;1.10;99.90
76120;DHT22;64852;48.092;-1.640;2024-01-11T07:23:01;1.10;99.90
76120;DHT22;64852;48.092;-1.640;2024-01-11T07:25:27;1.20;99.90
76120;DHT22;64852;48.092;-1.640;2024-01-11T07:27:52;3.50;99.90
76120;DHT22;64852;48.092;-1.640;2024-01-11T07:30:18;1.60;99.90
76120;DHT22;64852;48.092;-1.640;2024-01-11T07:32:44;1.30;99.90
76120;DHT22;64852;48.092;-1.640;2024-01-11T07:35:09;1.30;99.90
76120;DHT22;64852;48.092;-1.640;2024-01-11T07:37:38;1.30;99.90
76120;DHT22;64852;48.092;-1.640;2024-01-11T07:40:04;1.30;99.90
76120;DHT22;64852;48.092;-1.640;2024-01-11T07:42:30;1.40;99.90
76120;DHT22;64852;48.092;-1.640;2024-01-11T07:44:56;1.30;99.90
76120;DHT22;64852;48.092;-1.640;2024-01-11T07:47:21;1.40;99.90
76120;DHT22;64852;48.092;-1.640;2024-01-11T07:49:47;2.40;99.90
76120;DHT22;64852;48.092;-1.640;2024-01-11T07:52:13;1.30;99.90
76120;DHT22;64852;48.092;-1.640;2024-01-11T07:54:38;2.30;99.90
76120;DHT22;64852;48.092;-1.640;2024-01-11T07:57:04;1.40;99.90
76120;DHT22;64852;48.092;-1.640;2024-01-11T07:59:33;1.40;99.90
76120;DHT22;64852;48.092;-1.640;2024-01-11T08:02:01;1.40;99.90
76120;DHT22;64852;48.092;-1.640;2024-01-11T08:04:26;2.70;99.90
76120;DHT22;64852;48.092;-1.640;2024-01-11T08:06:52;1.50;99.90
76120;DHT22;64852;48.092;-1.640;2024-01-11T08:09:18;3.10;99.90
76120;DHT22;64852;48.092;-1.640;2024-01-11T08:11:43;1.50;99.90
76120;DHT22;64852;48.092;-1.640;2024-01-11T08:14:09;1.50;99.90
76120;DHT22;64852;48.092;-1.640;2024-01-11T08:16:34;1.50;99.90
76120;DHT22;64852;48.092;-1.640;2024-01-11T08:19:00;1.50;99.90
76120;DHT22;64852;48.092;-1.640;2024-01-11T08:21:28;1.60;99.90
76120;DHT22;64852;48.092;-1.640;2024-01-11T08:23:54;2.80;99.90
76120;DHT22;64852;48.092;-1.640;2024-01-11T08:26:20;1.50;99.90
76120;DHT22;64852;48.092;-1.640;2024-01-11T08:28:47;1.50;99.90
76120;DHT22;64852;48.092;-1.640;2024-01-11T08:31:12;1.60;99.90
76120;DHT22;64852;48.092;-1.640;2024-01-11T08:33:38;1.60;99.90
76120;DHT22;64852;48.092;-1.640;2024-01-11T08:36:04;1.50;99.90
76120;DHT22;64852;48.092;-1.640;2024-01-11T08:38:30;1.50;99.90
76120;DHT22;64852;48.092;-1.640;2024-01-11T08:40:56;1.50;99.90
76120;DHT22;64852;48.092;-1.640;2024-01-11T08:43:21;2.70;99.90
76120;DHT22;64852;48.092;-1.640;2024-01-11T08:45:47;3.40;99.90
76120;DHT22;64852;48.092;-1.640;2024-01-11T08:48:13;1.50;99.90
76120;DHT22;64852;48.092;-1.640;2024-01-11T08:50:38;1.70;99.90
76120;DHT22;64852;48.092;-1.640;2024-01-11T08:53:04;2.20;99.90
76120;DHT22;64852;48.092;-1.640;2024-01-11T08:55:29;1.60;99.90
76120;DHT22;64852;48.092;-1.640;2024-01-11T08:57:55;1.60;99.90
76120;DHT22;64852;48.092;-1.640;2024-01-11T09:00:20;3.30;99.90
76120;DHT22;64852;48.092;-1.640;2024-01-11T09:02:46;1.90;99.90
76120;DHT22;64852;48.092;-1.640;2024-01-11T09:05:13;3.40;99.90
76120;DHT22;64852;48.092;-1.640;2024-01-11T09:07:39;1.90;99.90
76120;DHT22;64852;48.092;-1.640;2024-01-11T09:10:05;2.10;99.90
76120;DHT22;64852;48.092;-1.640;2024-01-11T09:12:31;2.10;99.90
76120;DHT22;64852;48.092;-1.640;2024-01-11T09:14:56;2.20;99.90
76120;DHT22;64852;48.092;-1.640;2024-01-11T09:17:22;3.50;99.90
76120;DHT22;64852;48.092;-1.640;2024-01-11T09:19:47;2.40;99.90
76120;DHT22;64852;48.092;-1.640;2024-01-11T09:22:13;3.10;99.90
76120;DHT22;64852;48.092;-1.640;2024-01-11T09:24:38;2.20;99.90
76120;DHT22;64852;48.092;-1.640;2024-01-11T09:27:04;2.40;99.90
76120;DHT22;64852;48.092;-1.640;2024-01-11T09:29:29;2.50;99.90
76120;DHT22;64852;48.092;-1.640;2024-01-11T09:31:55;2.40;99.90
76120;DHT22;64852;48.092;-1.640;2024-01-11T09:34:20;2.60;99.90
76120;DHT22;64852;48.092;-1.640;2024-01-11T09:36:46;2.50;99.90
76120;DHT22;64852;48.092;-1.640;2024-01-11T09:39:12;2.80;99.90
76120;DHT22;64852;48.092;-1.640;2024-01-11T09:41:40;2.90;99.90
76120;DHT22;64852;48.092;-1.640;2024-01-11T09:44:06;2.80;99.90
76120;DHT22;64852;48.092;-1.640;2024-01-11T09:46:32;3.60;99.90
76120;DHT22;64852;48.092;-1.640;2024-01-11T09:48:58;3.10;99.90
76120;DHT22;64852;48.092;-1.640;2024-01-11T09:51:24;2.70;99.90
76120;DHT22;64852;48.092;-1.640;2024-01-11T09:53:50;3.10;99.90
76120;DHT22;64852;48.092;-1.640;2024-01-11T09:56:16;3.70;99.90
76120;DHT22;64852;48.092;-1.640;2024-01-11T09:58:46;3.00;99.90
76120;DHT22;64852;48.092;-1.640;2024-01-11T10:01:13;4.80;99.90
76120;DHT22;64852;48.092;-1.640;2024-01-11T10:03:39;3.30;99.90
76120;DHT22;64852;48.092;-1.640;2024-01-11T10:06:06;3.40;99.90
76120;DHT22;64852;48.092;-1.640;2024-01-11T10:08:32;4.00;99.90
76120;DHT22;64852;48.092;-1.640;2024-01-11T10:10:58;3.50;99.90
76120;DHT22;64852;48.092;-1.640;2024-01-11T10:13:32;4.80;99.90
76120;DHT22;64852;48.092;-1.640;2024-01-11T10:16:05;3.50;99.90
76120;DHT22;64852;48.092;-1.640;2024-01-11T10:18:30;3.70;99.90
76120;DHT22;64852;48.092;-1.640;2024-01-11T10:20:56;4.80;99.90
76120;DHT22;64852;48.092;-1.640;2024-01-11T10:23:22;3.50;99.90
76120;DHT22;64852;48.092;-1.640;2024-01-11T10:25:47;3.50;99.90
76120;DHT22;64852;48.092;-1.640;2024-01-11T10:28:13;3.70;99.90
76120;DHT22;64852;48.092;-1.640;2024-01-11T10:30:39;4.90;99.90
76120;DHT22;64852;48.092;-1.640;2024-01-11T10:33:06;5.00;99.90
76120;DHT22;64852;48.092;-1.640;2024-01-11T10:35:32;4.00;99.90
76120;DHT22;64852;48.092;-1.640;2024-01-11T10:37:57;5.50;99.90
76120;DHT22;64852;48.092;-1.640;2024-01-11T10:40:23;5.70;99.90
76120;DHT22;64852;48.092;-1.640;2024-01-11T10:42:51;4.20;99.90
76120;DHT22;64852;48.092;-1.640;2024-01-11T10:45:19;4.30;99.90
76120;DHT22;64852;48.092;-1.640;2024-01-11T10:47:50;5.50;99.90
76120;DHT22;64852;48.092;-1.640;2024-01-11T10:50:16;5.70;99.90
76120;DHT22;64852;48.092;-1.640;2024-01-11T10:52:46;4.70;99.90
76120;DHT22;64852;48.092;-1.640;2024-01-11T10:55:13;7.00;99.90
76120;DHT22;64852;48.092;-1.640;2024-01-11T10:57:39;5.00;99.90
76120;DHT22;64852;48.092;-1.640;2024-01-11T11:00:05;5.90;99.90
76120;DHT22;64852;48.092;-1.640;2024-01-11T11:02:31;5.10;99.90
76120;DHT22;64852;48.092;-1.640;2024-01-11T11:04:59;5.30;99.90
76120;DHT22;64852;48.092;-1.640;2024-01-11T11:07:29;5.60;99.90
76120;DHT22;64852;48.092;-1.640;2024-01-11T11:09:55;6.90;99.90
76120;DHT22;64852;48.092;-1.640;2024-01-11T11:12:21;7.00;99.90
76120;DHT22;64852;48.092;-1.640;2024-01-11T11:14:47;6.60;99.90
76120;DHT22;64852;48.092;-1.640;2024-01-11T11:17:14;6.20;99.90
76120;DHT22;64852;48.092;-1.640;2024-01-11T11:19:40;6.40;99.90
76120;DHT22;64852;48.092;-1.640;2024-01-11T11:22:06;5.80;99.90
76120;DHT22;64852;48.092;-1.640;2024-01-11T11:24:35;7.20;99.90
76120;DHT22;64852;48.092;-1.640;2024-01-11T11:27:01;6.10;99.90
76120;DHT22;64852;48.092;-1.640;2024-01-11T11:29:26;7.50;99.90
76120;DHT22;64852;48.092;-1.640;2024-01-11T11:31:52;7.20;99.90
76120;DHT22;64852;48.092;-1.640;2024-01-11T11:34:23;6.60;99.90
76120;DHT22;64852;48.092;-1.640;2024-01-11T11:37:05;6.50;99.90
76120;DHT22;64852;48.092;-1.640;2024-01-11T11:39:31;6.90;99.90
76120;DHT22;64852;48.092;-1.640;2024-01-11T11:41:56;6.90;99.90
76120;DHT22;64852;48.092;-1.640;2024-01-11T11:44:24;7.00;99.90
76120;DHT22;64852;48.092;-1.640;2024-01-11T11:46:49;8.10;99.90
76120;DHT22;64852;48.092;-1.640;2024-01-11T11:49:15;7.20;99.90
76120;DHT22;64852;48.092;-1.640;2024-01-11T11:51:42;7.40;99.90
76120;DHT22;64852;48.092;-1.640;2024-01-11T11:54:08;8.50;99.90
76120;DHT22;64852;48.092;-1.640;2024-01-11T11:56:39;8.40;99.90
76120;DHT22;64852;48.092;-1.640;2024-01-11T11:59:05;7.80;99.90
76120;DHT22;64852;48.092;-1.640;2024-01-11T12:01:31;7.80;99.90
76120;DHT22;64852;48.092;-1.640;2024-01-11T12:03:57;8.10;99.90
76120;DHT22;64852;48.092;-1.640;2024-01-11T12:06:23;8.20;99.90
76120;DHT22;64852;48.092;-1.640;2024-01-11T12:08:51;8.30;99.90
76120;DHT22;64852;48.092;-1.640;2024-01-11T12:11:18;8.50;99.90
76120;DHT22;64852;48.092;-1.640;2024-01-11T12:13:44;8.50;99.90
76120;DHT22;64852;48.092;-1.640;2024-01-11T12:16:11;9.40;99.90
76120;DHT22;64852;48.092;-1.640;2024-01-11T12:18:36;8.80;99.90
76120;DHT22;64852;48.092;-1.640;2024-01-11T12:21:02;9.30;99.90
76120;DHT22;64852;48.092;-1.640;2024-01-11T12:23:28;9.10;99.90
76120;DHT22;64852;48.092;-1.640;2024-01-11T12:25:56;9.20;99.90
76120;DHT22;64852;48.092;-1.640;2024-01-11T12:28:22;10.60;99.90
76120;DHT22;64852;48.092;-1.640;2024-01-11T12:30:48;9.90;99.90
76120;DHT22;64852;48.092;-1.640;2024-01-11T12:33:13;10.50;99.90
76120;DHT22;64852;48.092;-1.640;2024-01-11T12:35:39;11.00;99.90
76120;DHT22;64852;48.092;-1.640;2024-01-11T12:38:05;12.70;99.90
76120;DHT22;64852;48.092;-1.640;2024-01-11T12:40:36;12.20;99.90
76120;DHT22;64852;48.092;-1.640;2024-01-11T12:43:06;12.40;99.90
76120;DHT22;64852;48.092;-1.640;2024-01-11T12:45:32;12.50;99.90
76120;DHT22;64852;48.092;-1.640;2024-01-11T12:47:59;12.90;99.90
76120;DHT22;64852;48.092;-1.640;2024-01-11T12:50:28;13.00;99.90
76120;DHT22;64852;48.092;-1.640;2024-01-11T12:53:10;12.90;99.70
76120;DHT22;64852;48.092;-1.640;2024-01-11T12:55:45;12.90;99.90
76120;DHT22;64852;48.092;-1.640;2024-01-11T12:58:11;12.90;99.90
76120;DHT22;64852;48.092;-1.640;2024-01-11T13:00:37;12.80;99.90
76120;DHT22;64852;48.092;-1.640;2024-01-11T13:03:03;12.60;99.90
76120;DHT22;64852;48.092;-1.640;2024-01-11T13:05:29;12.50;99.90
76120;DHT22;64852;48.092;-1.640;2024-01-11T13:08:03;12.40;99.90
76120;DHT22;64852;48.092;-1.640;2024-01-11T13:10:32;11.90;95.90
76120;DHT22;64852;48.092;-1.640;2024-01-11T13:12:58;11.70;91.20
76120;DHT22;64852;48.092;-1.640;2024-01-11T13:15:23;11.80;99.30
76120;DHT22;64852;48.092;-1.640;2024-01-11T13:17:49;11.90;99.90
76120;DHT22;64852;48.092;-1.640;2024-01-11T13:20:15;11.90;99.90
76120;DHT22;64852;48.092;-1.640;2024-01-11T13:22:41;11.90;95.30
76120;DHT22;64852;48.092;-1.640;2024-01-11T13:25:06;11.70;99.90
76120;DHT22;64852;48.092;-1.640;2024-01-11T13:27:32;11.70;93.80
76120;DHT22;64852;48.092;-1.640;2024-01-11T13:29:57;11.50;99.90
76120;DHT22;64852;48.092;-1.640;2024-01-11T13:32:23;11.60;99.90
76120;DHT22;64852;48.092;-1.640;2024-01-11T13:34:49;11.60;99.90
76120;DHT22;64852;48.092;-1.640;2024-01-11T13:37:18;11.80;99.90
76120;DHT22;64852;48.092;-1.640;2024-01-11T13:39:44;12.00;99.90
76120;DHT22;64852;48.092;-1.640;2024-01-11T13:42:09;12.10;99.90
76120;DHT22;64852;48.092;-1.640;2024-01-11T13:44:36;12.10;99.30
76120;DHT22;64852;48.092;-1.640;2024-01-11T13:47:01;11.80;95.80
76120;DHT22;64852;48.092;-1.640;2024-01-11T13:49:27;11.40;92.30
76120;DHT22;64852;48.092;-1.640;2024-01-11T13:51:53;11.20;91.40
76120;DHT22;64852;48.092;-1.640;2024-01-11T13:54:18;11.10;97.10
76120;DHT22;64852;48.092;-1.640;2024-01-11T13:56:44;10.90;95.50
76120;DHT22;64852;48.092;-1.640;2024-01-11T13:59:09;11.10;99.90
76120;DHT22;64852;48.092;-1.640;2024-01-11T14:01:35;11.30;97.60
76120;DHT22;64852;48.092;-1.640;2024-01-11T14:04:00;10.80;94.60
76120;DHT22;64852;48.092;-1.640;2024-01-11T14:06:26;10.70;91.80
76120;DHT22;64852;48.092;-1.640;2024-01-11T14:08:51;10.70;98.70
76120;DHT22;64852;48.092;-1.640;2024-01-11T14:11:17;10.90;99.90
76120;DHT22;64852;48.092;-1.640;2024-01-11T14:13:42;10.60;93.80
76120;DHT22;64852;48.092;-1.640;2024-01-11T14:16:07;11.00;90.30
76120;DHT22;64852;48.092;-1.640;2024-01-11T14:18:33;10.60;93.60
76120;DHT22;64852;48.092;-1.640;2024-01-11T14:20:58;11.10;98.00
76120;DHT22;64852;48.092;-1.640;2024-01-11T14:23:24;10.10;93.50
76120;DHT22;64852;48.092;-1.640;2024-01-11T14:25:49;10.70;94.90
76120;DHT22;64852;48.092;-1.640;2024-01-11T14:28:15;10.10;91.90
76120;DHT22;64852;48.092;-1.640;2024-01-11T14:30:41;9.70;93.40
76120;DHT22;64852;48.092;-1.640;2024-01-11T14:33:06;10.10;92.70
76120;DHT22;64852;48.092;-1.640;2024-01-11T14:35:32;9.40;96.80
76120;DHT22;64852;48.092;-1.640;2024-01-11T14:37:57;9.60;95.90
76120;DHT22;64852;48.092;-1.640;2024-01-11T14:40:23;9.60;99.90
76120;DHT22;64852;48.092;-1.640;2024-01-11T14:42:49;9.60;95.30
76120;DHT22;64852;48.092;-1.640;2024-01-11T14:45:15;9.50;94.50
76120;DHT22;64852;48.092;-1.640;2024-01-11T14:47:42;9.50;96.40
76120;DHT22;64852;48.092;-1.640;2024-01-11T14:50:08;9.20;96.60
76120;DHT22;64852;48.092;-1.640;2024-01-11T14:52:36;9.00;95.60
76120;DHT22;64852;48.092;-1.640;2024-01-11T14:55:04;8.80;96.90
76120;DHT22;64852;48.092;-1.640;2024-01-11T14:57:29;8.50;97.50
76120;DHT22;64852;48.092;-1.640;2024-01-11T14:59:56;9.40;99.20
76120;DHT22;64852;48.092;-1.640;2024-01-11T15:02:21;8.30;99.90
76120;DHT22;64852;48.092;-1.640;2024-01-11T15:04:48;8.00;99.90
76120;DHT22;64852;48.092;-1.640;2024-01-11T15:07:13;8.10;99.90
76120;DHT22;64852;48.092;-1.640;2024-01-11T15:09:39;8.20;99.90
76120;DHT22;64852;48.092;-1.640;2024-01-11T15:12:04;8.20;99.90
76120;DHT22;64852;48.092;-1.640;2024-01-11T15:14:30;7.50;99.90
76120;DHT22;64852;48.092;-1.640;2024-01-11T15:16:56;7.50;99.90
76120;DHT22;64852;48.092;-1.640;2024-01-11T15:19:21;8.60;99.90
76120;DHT22;64852;48.092;-1.640;2024-01-11T15:21:46;8.20;99.90